createdAt,value
2018-07-28T00:00:04.930Z,19.31
2018-07-28T00:02:33.114Z,19.33
2018-07-28T00:05:01.243Z,19.48
2018-07-28T00:07:29.247Z,19.47
2018-07-28T00:09:57.352Z,19.58
2018-07-28T00:12:25.914Z,19.62
2018-07-28T00:14:53.978Z,19.67
2018-07-28T00:17:22.390Z,19.76
2018-07-28T00:19:50.931Z,19.69
2018-07-28T00:22:19.010Z,19.60
2018-07-28T00:24:47.407Z,19.73
2018-07-28T00:27:15.637Z,19.72
2018-07-28T00:29:43.770Z,19.59
2018-07-28T00:32:11.923Z,19.66
2018-07-28T00:34:39.931Z,19.70
2018-07-28T00:37:07.887Z,19.41
2018-07-28T00:39:35.814Z,19.48
2018-07-28T00:42:04.127Z,19.39
2018-07-28T00:44:32.380Z,19.43
2018-07-28T00:47:00.878Z,19.38
2018-07-28T00:49:29.144Z,19.38
2018-07-28T00:51:57.324Z,19.49
2018-07-28T00:54:25.845Z,19.64
2018-07-28T00:56:53.970Z,19.66
2018-07-28T00:59:22.353Z,19.72
2018-07-28T01:01:50.489Z,19.70
2018-07-28T01:04:19.053Z,19.73
2018-07-28T01:06:47.194Z,19.59
2018-07-28T01:09:15.247Z,19.57
2018-07-28T01:11:43.429Z,19.43
2018-07-28T01:14:12.043Z,19.41
2018-07-28T01:16:40.087Z,19.48
2018-07-28T01:19:08.111Z,19.54
2018-07-28T01:21:36.239Z,19.56
2018-07-28T01:24:04.256Z,19.59
2018-07-28T01:26:32.729Z,19.55
2018-07-28T01:29:06.778Z,19.44
2018-07-28T01:31:34.803Z,19.47
2018-07-28T01:34:03.015Z,19.54
2018-07-28T01:36:31.612Z,19.55
2018-07-28T01:39:00.022Z,19.53
2018-07-28T01:41:28.029Z,19.50
2018-07-28T01:43:56.060Z,19.48
2018-07-28T01:46:25.124Z,19.47
2018-07-28T01:48:53.122Z,19.45
2018-07-28T01:51:21.139Z,19.45
2018-07-28T01:53:49.588Z,19.43
2018-07-28T01:56:17.906Z,19.33
2018-07-28T01:58:46.084Z,19.40
2018-07-28T02:01:14.112Z,19.48
2018-07-28T02:03:42.198Z,19.53
2018-07-28T02:06:12.026Z,19.63
2018-07-28T02:08:39.982Z,19.64
2018-07-28T02:11:08.044Z,19.66
2018-07-28T02:13:36.064Z,19.63
2018-07-28T02:16:04.594Z,19.63
2018-07-28T02:18:33.025Z,19.52
2018-07-28T02:21:01.447Z,19.46
2018-07-28T02:23:30.254Z,19.44
2018-07-28T02:25:58.405Z,19.45
2018-07-28T02:28:27.809Z,19.48
2018-07-28T02:30:55.829Z,19.39
2018-07-28T02:33:23.963Z,19.43
2018-07-28T02:35:52.022Z,19.40
2018-07-28T02:38:20.105Z,19.42
2018-07-28T02:40:48.395Z,19.51
2018-07-28T02:43:16.658Z,19.52
2018-07-28T02:45:44.758Z,19.46
2018-07-28T02:48:12.715Z,19.34
2018-07-28T02:50:40.718Z,19.33
2018-07-28T02:53:08.770Z,19.29
2018-07-28T02:55:36.972Z,19.25
2018-07-28T02:58:05.567Z,19.25
2018-07-28T03:00:33.971Z,19.24
2018-07-28T03:03:02.103Z,19.28
2018-07-28T03:05:30.468Z,19.29
2018-07-28T03:07:58.846Z,19.26
2018-07-28T03:10:26.926Z,19.38
2018-07-28T03:12:54.995Z,19.30
2018-07-28T03:15:32.269Z,19.26
2018-07-28T03:18:03.450Z,19.34
2018-07-28T03:20:31.567Z,19.47
2018-07-28T03:23:00.451Z,19.67
2018-07-28T03:25:29.040Z,19.71
2018-07-28T03:27:57.250Z,19.71
2018-07-28T03:30:26.134Z,19.63
2018-07-28T03:32:54.406Z,19.57
2018-07-28T03:35:22.574Z,19.60
2018-07-28T03:37:51.365Z,19.59
2018-07-28T03:40:19.541Z,19.64
2018-07-28T03:42:47.640Z,19.64
2018-07-28T03:45:15.979Z,19.60
2018-07-28T03:47:44.015Z,19.64
2018-07-28T03:50:12.136Z,19.63
2018-07-28T03:52:40.358Z,19.65
2018-07-28T03:55:09.555Z,19.64
2018-07-28T03:57:37.707Z,19.68
2018-07-28T04:00:09.456Z,19.73
2018-07-28T04:02:37.976Z,19.67
2018-07-28T04:05:07.544Z,19.75
2018-07-28T04:07:35.705Z,19.81
2018-07-28T04:10:04.426Z,19.84
2018-07-28T04:12:32.600Z,19.91
2018-07-28T04:15:00.691Z,20.02
2018-07-28T04:17:29.507Z,20.10
2018-07-28T04:19:57.910Z,20.17
2018-07-28T04:22:25.918Z,20.31
2018-07-28T04:24:54.631Z,20.43
2018-07-28T04:27:24.246Z,20.54
2018-07-28T04:29:52.843Z,20.64
2018-07-28T04:32:20.841Z,20.69
2018-07-28T04:34:49.210Z,20.81
2018-07-28T04:37:17.363Z,20.78
2018-07-28T04:39:45.535Z,20.73
2018-07-28T04:42:13.544Z,20.83
2018-07-28T04:44:41.500Z,20.98
2018-07-28T04:47:09.494Z,21.11
2018-07-28T04:49:37.691Z,21.30
2018-07-28T04:52:06.015Z,21.36
2018-07-28T04:54:34.330Z,21.43
2018-07-28T04:57:03.738Z,21.44
2018-07-28T04:59:32.463Z,21.40
2018-07-28T05:02:02.218Z,21.49
2018-07-28T05:04:30.600Z,21.67
2018-07-28T05:06:58.694Z,21.87
2018-07-28T05:09:26.738Z,21.93
2018-07-28T05:11:54.824Z,22.01
2018-07-28T05:14:23.238Z,22.19
2018-07-28T05:16:51.245Z,22.36
2018-07-28T05:19:19.797Z,22.49
2018-07-28T05:21:48.496Z,22.59
2018-07-28T05:24:18.243Z,22.62
2018-07-28T05:26:46.390Z,22.65
2018-07-28T05:29:15.588Z,22.73
2018-07-28T05:31:44.206Z,22.82
2018-07-28T05:34:13.760Z,22.91
2018-07-28T05:36:41.948Z,22.84
2018-07-28T05:39:11.765Z,22.83
2018-07-28T05:41:40.471Z,22.89
2018-07-28T05:44:08.700Z,22.94
2018-07-28T05:46:40.408Z,22.97
2018-07-28T05:49:08.658Z,23.04
2018-07-28T05:51:37.448Z,23.22
2018-07-28T05:54:05.492Z,23.28
2018-07-28T05:56:36.222Z,23.34
2018-07-28T05:59:04.634Z,23.35
2018-07-28T06:01:33.031Z,23.43
2018-07-28T06:04:03.349Z,23.43
2018-07-28T06:06:33.525Z,23.40
2018-07-28T06:09:01.516Z,23.37
2018-07-28T06:11:30.061Z,23.37
2018-07-28T06:13:58.197Z,23.38
2018-07-28T06:16:27.179Z,23.41
2018-07-28T06:18:55.902Z,23.52
2018-07-28T06:21:41.082Z,23.59
2018-07-28T06:24:19.092Z,23.57
2018-07-28T06:26:54.872Z,23.71
2018-07-28T06:29:36.972Z,23.81
2018-07-28T06:32:20.321Z,23.91
2018-07-28T06:35:02.159Z,24.23
2018-07-28T06:37:44.685Z,24.18
2018-07-28T06:40:19.942Z,24.43
2018-07-28T06:42:58.787Z,24.65
2018-07-28T06:45:46.284Z,24.63
2018-07-28T06:48:22.529Z,24.61
2018-07-28T06:50:59.726Z,24.75
2018-07-28T06:53:37.163Z,25.06
2018-07-28T06:58:48.798Z,25.41
2018-07-28T07:01:20.484Z,25.59
2018-07-28T07:03:53.063Z,25.69
2018-07-28T07:06:35.929Z,25.71
2018-07-28T07:09:13.629Z,25.63
2018-07-28T07:11:45.189Z,25.61
2018-07-28T07:14:19.693Z,25.78
2018-07-28T07:16:51.032Z,25.75
2018-07-28T07:19:27.153Z,25.70
2018-07-28T07:21:59.023Z,25.50
2018-07-28T07:24:31.599Z,25.23
2018-07-28T07:27:02.017Z,25.15
2018-07-28T07:29:35.105Z,25.25
2018-07-28T07:32:09.435Z,25.42
2018-07-28T07:37:16.811Z,25.92
2018-07-28T07:39:48.544Z,26.15
2018-07-28T07:42:21.478Z,26.21
2018-07-28T07:45:02.652Z,26.37
2018-07-28T07:47:40.089Z,26.52
2018-07-28T07:50:15.770Z,26.76
2018-07-28T07:52:44.775Z,26.87
2018-07-28T07:55:12.908Z,26.83
2018-07-28T07:57:40.946Z,26.63
2018-07-28T08:00:10.174Z,26.62
2018-07-28T08:02:38.206Z,26.83
2018-07-28T08:05:06.558Z,26.72
2018-07-28T08:07:35.091Z,26.63
2018-07-28T08:10:04.539Z,26.74
2018-07-28T08:12:32.621Z,26.89
2018-07-28T08:15:01.883Z,26.89
2018-07-28T08:17:29.987Z,26.83
2018-07-28T08:19:58.455Z,26.71
2018-07-28T08:22:26.670Z,26.77
2018-07-28T08:24:55.571Z,27.04
2018-07-28T08:27:23.832Z,26.97
2018-07-28T08:29:51.804Z,26.87
2018-07-28T08:32:19.810Z,26.85
2018-07-28T08:34:47.846Z,26.73
2018-07-28T08:37:15.840Z,26.42
2018-07-28T08:39:43.947Z,26.57
2018-07-28T08:42:12.884Z,26.74
2018-07-28T08:44:41.486Z,27.01
2018-07-28T08:47:12.019Z,27.08
2018-07-28T08:49:41.355Z,27.23
2018-07-28T08:52:09.753Z,27.52
2018-07-28T08:54:37.750Z,27.74
2018-07-28T08:57:05.744Z,27.94
2018-07-28T08:59:33.794Z,27.88
2018-07-28T09:02:01.855Z,27.86
2018-07-28T09:04:30.018Z,27.74
2018-07-28T09:06:58.099Z,27.62
2018-07-28T09:09:26.221Z,27.69
2018-07-28T09:11:54.245Z,27.97
2018-07-28T09:14:22.214Z,28.23
2018-07-28T09:16:50.252Z,28.61
2018-07-28T09:19:18.589Z,28.86
2018-07-28T09:21:46.608Z,28.85
2018-07-28T09:24:15.302Z,28.68
2018-07-28T09:26:43.361Z,28.58
2018-07-28T09:29:11.442Z,28.59
2018-07-28T09:31:40.087Z,28.62
2018-07-28T09:34:08.118Z,28.54
2018-07-28T09:36:36.305Z,28.74
2018-07-28T09:39:08.048Z,28.93
2018-07-28T09:41:36.227Z,28.64
2018-07-28T09:44:04.300Z,28.80
2018-07-28T09:46:32.501Z,28.98
2018-07-28T09:49:00.543Z,28.72
2018-07-28T09:51:29.283Z,28.65
2018-07-28T09:53:57.326Z,28.21
2018-07-28T09:56:25.422Z,27.85
2018-07-28T09:58:53.393Z,27.41
2018-07-28T10:01:22.942Z,27.09
2018-07-28T10:03:51.436Z,27.00
2018-07-28T10:06:19.476Z,26.87
2018-07-28T10:08:47.416Z,26.75
2018-07-28T10:11:15.650Z,26.68
2018-07-28T10:13:44.253Z,26.60
2018-07-28T10:16:12.497Z,26.65
2018-07-28T10:18:40.485Z,26.61
2018-07-28T10:21:08.940Z,26.54
2018-07-28T10:23:36.941Z,26.54
2018-07-28T10:26:05.399Z,26.35
2018-07-28T10:28:33.443Z,26.21
2018-07-28T10:31:01.453Z,26.10
2018-07-28T10:33:29.435Z,26.00
2018-07-28T10:35:57.429Z,25.93
2018-07-28T10:38:25.724Z,25.90
2018-07-28T10:40:53.802Z,25.96
2018-07-28T10:43:22.539Z,25.96
2018-07-28T10:45:50.544Z,25.96
2018-07-28T10:48:18.574Z,26.06
2018-07-28T10:50:46.575Z,26.09
2018-07-28T10:53:14.731Z,26.30
2018-07-28T10:55:52.320Z,26.55
2018-07-28T10:58:23.292Z,26.86
2018-07-28T11:00:51.872Z,27.23
2018-07-28T11:03:21.542Z,27.55
2018-07-28T11:05:55.348Z,27.52
2018-07-28T11:08:25.849Z,27.56
2018-07-28T11:10:55.461Z,27.69
2018-07-28T11:13:26.269Z,27.82
2018-07-28T11:15:58.909Z,27.76
2018-07-28T11:18:36.029Z,27.92
2018-07-28T11:26:35.902Z,28.18
2018-07-28T11:29:04.067Z,28.10
2018-07-28T11:31:43.232Z,28.17
2018-07-28T11:34:22.432Z,28.31
2018-07-28T11:37:02.810Z,28.58
2018-07-28T11:39:41.827Z,28.83
2018-07-28T11:42:20.834Z,28.81
2018-07-28T11:45:22.904Z,28.70
2018-07-28T11:47:50.928Z,28.50
2018-07-28T11:50:18.940Z,28.18
2018-07-28T11:52:47.155Z,28.07
2018-07-28T11:55:15.193Z,27.95
2018-07-28T11:57:43.206Z,27.81
2018-07-28T12:00:11.283Z,27.79
2018-07-28T12:02:39.782Z,27.76
2018-07-28T12:05:08.117Z,27.68
2018-07-28T12:07:36.212Z,27.71
2018-07-28T12:10:06.667Z,27.80
2018-07-28T12:12:34.750Z,27.80
2018-07-28T12:15:02.948Z,27.84
2018-07-28T12:17:31.019Z,27.92
2018-07-28T12:19:59.796Z,27.87
2018-07-28T12:22:27.962Z,27.96
2018-07-28T12:24:56.071Z,28.09
2018-07-28T12:27:24.172Z,28.23
2018-07-28T12:29:52.210Z,28.25
2018-07-28T12:32:20.430Z,28.36
2018-07-28T12:34:51.667Z,28.40
2018-07-28T12:37:19.799Z,28.41
2018-07-28T12:39:50.024Z,28.75
2018-07-28T12:42:18.688Z,29.05
2018-07-28T12:44:46.799Z,29.04
2018-07-28T12:47:14.828Z,28.61
2018-07-28T12:49:43.031Z,28.39
2018-07-28T12:52:11.059Z,28.39
2018-07-28T12:54:39.638Z,28.63
2018-07-28T12:57:09.012Z,28.72
2018-07-28T12:59:38.037Z,28.68
2018-07-28T13:02:06.179Z,28.61
2018-07-28T13:04:34.411Z,28.54
2018-07-28T13:07:02.529Z,28.49
2018-07-28T13:09:30.548Z,28.54
2018-07-28T13:11:58.612Z,28.48
2018-07-28T13:14:26.837Z,28.63
2018-07-28T13:16:54.961Z,29.07
2018-07-28T13:19:23.109Z,30.18
2018-07-28T13:21:51.325Z,31.08
2018-07-28T13:24:19.331Z,30.82
2018-07-28T13:26:47.820Z,30.24
2018-07-28T13:29:15.807Z,29.71
2018-07-28T13:31:43.879Z,29.46
2018-07-28T13:34:12.206Z,29.22
2018-07-28T13:36:40.204Z,29.06
2018-07-28T13:39:09.188Z,28.80
2018-07-28T13:41:37.298Z,28.68
2018-07-28T13:44:05.626Z,28.63
2018-07-28T13:46:33.710Z,28.54
2018-07-28T13:49:01.744Z,28.44
2018-07-28T13:51:29.704Z,28.25
2018-07-28T13:53:58.191Z,28.07
2018-07-28T13:56:28.396Z,27.92
2018-07-28T13:58:56.595Z,27.81
2018-07-28T14:01:24.753Z,27.80
2018-07-28T14:03:52.831Z,27.71
2018-07-28T14:06:20.834Z,27.56
2018-07-28T14:08:51.621Z,27.63
2018-07-28T14:11:19.736Z,27.54
2018-07-28T14:13:47.864Z,27.47
2018-07-28T14:16:16.027Z,27.29
2018-07-28T14:18:44.155Z,27.21
2018-07-28T14:21:12.234Z,26.77
2018-07-28T14:23:40.355Z,26.06
2018-07-28T14:26:08.976Z,25.32
2018-07-28T14:28:37.015Z,24.95
2018-07-28T14:31:05.028Z,24.71
2018-07-28T14:33:33.042Z,24.64
2018-07-28T14:36:02.681Z,24.60
2018-07-28T14:38:30.787Z,24.69
2018-07-28T14:40:58.803Z,24.85
2018-07-28T14:43:27.004Z,24.99
2018-07-28T14:45:55.165Z,24.96
2018-07-28T14:48:23.244Z,24.99
2018-07-28T14:50:51.363Z,25.02
2018-07-28T14:53:19.796Z,25.13
2018-07-28T14:55:47.971Z,25.28
2018-07-28T14:58:16.151Z,25.44
2018-07-28T15:00:44.206Z,25.68
2018-07-28T15:03:12.484Z,25.80
2018-07-28T15:05:40.476Z,25.84
2018-07-28T15:08:08.658Z,25.94
2018-07-28T15:10:37.007Z,26.11
2018-07-28T15:13:05.086Z,26.26
2018-07-28T15:15:33.251Z,26.41
2018-07-28T15:18:01.242Z,26.53
2018-07-28T15:20:29.322Z,26.65
2018-07-28T15:22:57.387Z,26.81
2018-07-28T15:25:25.452Z,26.93
2018-07-28T15:27:53.607Z,27.03
2018-07-28T15:30:22.633Z,27.24
2018-07-28T15:32:50.746Z,27.70
2018-07-28T15:35:19.293Z,28.33
2018-07-28T15:37:47.565Z,28.81
2018-07-28T15:40:15.602Z,28.71
2018-07-28T15:42:43.923Z,29.09
2018-07-28T15:45:12.077Z,29.64
2018-07-28T15:47:40.251Z,30.50
2018-07-28T15:50:08.235Z,31.04
2018-07-28T15:52:36.330Z,31.22
2018-07-28T15:55:04.378Z,31.27
2018-07-28T15:57:32.467Z,31.03
2018-07-28T16:00:00.837Z,31.28
2018-07-28T16:02:29.023Z,31.50
2018-07-28T16:04:57.524Z,30.99
2018-07-28T16:07:25.967Z,31.01
2018-07-28T16:09:54.540Z,31.31
2018-07-28T16:12:22.599Z,31.15
2018-07-28T16:14:51.136Z,30.90
2018-07-28T16:17:19.135Z,30.68
2018-07-28T16:19:47.738Z,30.59
2018-07-28T16:22:15.722Z,30.69
2018-07-28T16:24:43.738Z,31.01
2018-07-28T16:27:11.712Z,31.14
2018-07-28T16:29:39.832Z,31.40
2018-07-28T16:32:07.901Z,31.27
2018-07-28T16:34:36.346Z,30.74
2018-07-28T16:37:04.802Z,29.75
2018-07-28T16:39:32.822Z,29.17
2018-07-28T16:42:00.977Z,28.98
2018-07-28T16:44:29.350Z,28.68
2018-07-28T16:46:57.438Z,28.35
2018-07-28T16:49:25.402Z,28.26
2018-07-28T16:51:53.472Z,28.01
2018-07-28T16:54:21.565Z,27.98
2018-07-28T16:56:50.029Z,27.80
2018-07-28T16:59:18.090Z,27.54
2018-07-28T17:01:46.389Z,27.26
2018-07-28T17:04:14.404Z,27.10
2018-07-28T17:06:42.782Z,27.02
2018-07-28T17:09:12.181Z,26.77
2018-07-28T17:11:41.112Z,26.70
2018-07-28T17:14:09.312Z,26.49
2018-07-28T17:16:41.810Z,26.30
2018-07-28T17:19:10.020Z,26.26
2018-07-28T17:21:38.187Z,26.21
2018-07-28T17:24:06.214Z,26.13
2018-07-28T17:26:34.484Z,26.12
2018-07-28T17:29:02.506Z,26.19
2018-07-28T17:31:30.705Z,26.15
2018-07-28T17:33:59.160Z,26.06
2018-07-28T17:36:27.221Z,25.89
2018-07-28T17:38:55.608Z,25.90
2018-07-28T17:41:23.700Z,25.79
2018-07-28T17:43:51.739Z,25.71
2018-07-28T17:46:19.854Z,25.67
2018-07-28T17:48:47.910Z,25.63
2018-07-28T17:51:15.975Z,25.59
2018-07-28T17:53:44.043Z,25.59
2018-07-28T17:56:12.509Z,25.60
2018-07-28T17:58:40.627Z,25.56
2018-07-28T18:01:08.785Z,25.44
2018-07-28T18:03:36.845Z,25.32
2018-07-28T18:06:05.083Z,25.38
2018-07-28T18:08:33.134Z,25.38
2018-07-28T18:11:01.199Z,25.37
2018-07-28T18:13:29.259Z,25.28
2018-07-28T18:15:57.602Z,25.35
2018-07-28T18:18:25.957Z,25.19
2018-07-28T18:20:54.007Z,25.07
2018-07-28T18:23:22.002Z,24.96
2018-07-28T18:25:50.302Z,24.65
2018-07-28T18:28:18.427Z,24.59
2018-07-28T18:30:46.515Z,24.65
2018-07-28T18:33:14.955Z,24.68
2018-07-28T18:35:43.288Z,24.67
2018-07-28T18:38:11.568Z,24.69
2018-07-28T18:40:39.719Z,24.72
2018-07-28T18:43:08.186Z,24.69
2018-07-28T18:45:37.290Z,24.63
2018-07-28T18:48:05.528Z,24.61
2018-07-28T18:50:33.536Z,24.66
2018-07-28T18:53:01.600Z,24.67
2018-07-28T18:55:29.932Z,24.59
2018-07-28T18:57:57.986Z,24.63
2018-07-28T19:00:26.700Z,24.60
2018-07-28T19:02:55.332Z,24.57
2018-07-28T19:05:23.486Z,24.47
2018-07-28T19:07:51.787Z,24.45
2018-07-28T19:10:20.093Z,24.36
2018-07-28T19:12:53.634Z,24.37
2018-07-28T19:15:21.708Z,24.38
2018-07-28T19:17:56.059Z,24.42
2018-07-28T19:20:23.989Z,24.64
2018-07-28T19:22:58.368Z,24.73
2018-07-28T19:25:26.924Z,24.75
2018-07-28T19:28:00.756Z,24.66
2018-07-28T19:30:28.966Z,24.58
2018-07-28T19:32:56.956Z,24.42
2018-07-28T19:35:29.849Z,24.24
2018-07-28T19:37:57.916Z,24.01
2018-07-28T19:40:26.771Z,23.84
2018-07-28T19:42:55.487Z,23.80
2018-07-28T19:45:23.510Z,23.74
2018-07-28T19:47:51.606Z,23.64
2018-07-28T19:50:20.899Z,23.54
2018-07-28T19:52:49.051Z,23.47
2018-07-28T19:55:17.093Z,23.49
2018-07-28T19:57:45.384Z,23.43
2018-07-28T20:00:14.878Z,23.47
2018-07-28T20:02:46.414Z,23.43
2018-07-28T20:05:14.502Z,23.39
2018-07-28T20:07:42.598Z,23.35
2018-07-28T20:10:11.431Z,23.38
2018-07-28T20:12:39.494Z,23.37
2018-07-28T20:15:07.628Z,23.39
2018-07-28T20:17:36.212Z,23.33
2018-07-28T20:20:04.473Z,23.33
2018-07-28T20:22:32.546Z,23.31
2018-07-28T20:25:08.733Z,23.30
2018-07-28T20:27:37.634Z,23.31
2018-07-28T20:30:05.755Z,23.44
2018-07-28T20:32:33.748Z,23.39
2018-07-28T20:35:01.835Z,23.35
2018-07-28T20:37:29.804Z,23.34
2018-07-28T20:39:57.853Z,23.34
2018-07-28T20:42:27.690Z,23.28
2018-07-28T20:44:56.391Z,23.32
2018-07-28T20:47:24.402Z,23.30
2018-07-28T20:49:52.549Z,23.32
2018-07-28T20:52:20.610Z,23.29
2018-07-28T20:54:49.290Z,23.23
2018-07-28T20:57:18.344Z,23.19
2018-07-28T20:59:46.568Z,23.12
2018-07-28T21:02:15.179Z,23.21
2018-07-28T21:04:43.192Z,23.27
2018-07-28T21:07:11.159Z,23.19
2018-07-28T21:09:39.101Z,23.13
2018-07-28T21:12:07.142Z,23.13
2018-07-28T21:14:35.260Z,23.09
2018-07-28T21:17:03.392Z,22.98
2018-07-28T21:19:31.846Z,22.83
2018-07-28T21:21:59.925Z,22.81
2018-07-28T21:24:28.010Z,22.67
2018-07-28T21:26:56.111Z,22.73
2018-07-28T21:29:24.141Z,22.66
2018-07-28T21:31:52.727Z,22.64
2018-07-28T21:34:20.800Z,22.61
2018-07-28T21:36:48.854Z,22.61
2018-07-28T21:39:16.963Z,22.55
2018-07-28T21:41:45.138Z,22.59
2018-07-28T21:44:13.086Z,22.55
2018-07-28T21:46:41.010Z,22.55
2018-07-28T21:49:09.490Z,22.51
2018-07-28T21:51:37.547Z,22.53
2018-07-28T21:54:05.635Z,22.49
2018-07-28T21:56:33.786Z,22.51
2018-07-28T21:59:02.304Z,22.44
2018-07-28T22:01:30.480Z,22.32
2018-07-28T22:04:01.656Z,22.20
2018-07-28T22:06:30.270Z,22.25
2018-07-28T22:08:58.404Z,22.30
2018-07-28T22:11:26.430Z,22.20
2018-07-28T22:13:54.495Z,22.22
2018-07-28T22:16:22.630Z,22.17
2018-07-28T22:18:50.731Z,22.15
2018-07-28T22:21:18.879Z,22.13
2018-07-28T22:23:46.896Z,22.10
2018-07-28T22:26:14.907Z,22.07
2018-07-28T22:28:42.928Z,22.03
2018-07-28T22:31:11.000Z,22.04
2018-07-28T22:33:39.067Z,21.97
2018-07-28T22:36:07.612Z,21.97
2018-07-28T22:38:35.693Z,21.85
2018-07-28T22:41:03.768Z,21.85
2018-07-28T22:43:31.845Z,21.99
2018-07-28T22:45:59.917Z,21.95
2018-07-28T22:48:27.975Z,22.02
2018-07-28T22:50:56.499Z,22.07
2018-07-28T22:53:24.673Z,22.09
2018-07-28T22:55:52.737Z,22.08
2018-07-28T22:58:20.771Z,22.14
2018-07-28T23:00:48.878Z,22.15
2018-07-28T23:03:17.012Z,22.08
2018-07-28T23:05:45.092Z,22.12
2018-07-28T23:08:13.108Z,22.12
2018-07-28T23:10:41.355Z,22.11
2018-07-28T23:16:00.191Z,21.99
2018-07-28T23:18:28.258Z,21.88
2018-07-28T23:20:56.368Z,21.80
2018-07-28T23:23:24.410Z,21.61
2018-07-28T23:25:52.599Z,21.72
2018-07-28T23:28:20.777Z,21.74
2018-07-28T23:30:48.781Z,21.84
2018-07-28T23:33:16.788Z,21.93
2018-07-28T23:35:45.399Z,21.97
2018-07-28T23:38:13.646Z,22.01
2018-07-28T23:40:44.739Z,22.04
2018-07-28T23:43:12.751Z,22.09
2018-07-28T23:45:40.811Z,22.20
2018-07-28T23:48:08.879Z,22.25
2018-07-28T23:50:36.910Z,22.36
2018-07-28T23:53:04.928Z,22.41
2018-07-28T23:55:33.099Z,22.33
2018-07-28T23:58:01.345Z,22.32
